Time;durP1;ratioP1;P1;durP2;ratioP2;P2;SDS_P1;SDS_P2;PMS_P1;PMS_P2;Temp;Humidity;BMP_temperature;BMP_pressure;BME280_temperature;BME280_humidity;BME280_pressure;Samples;Min_cycle;Max_cycle;Signal;HPM_P1;HPM_P2
2022/06/20 00:01:07;;;;;;;;;44.00;38.67;;;;;18.21;100.00;100362.72;6284090;22;45214;-85
2022/06/20 00:03:41;;;;;;;;;43.33;38.00;;;;;18.25;100.00;100376.06;6307959;22;47290;-85
2022/06/20 00:06:12;;;;;;;;;42.33;36.33;;;;;18.21;100.00;100401.28;6283575;22;44735;-85
2022/06/20 00:08:38;;;;;;;;;40.33;35.00;;;;;18.19;100.00;100424.66;6287176;22;45305;-85
2022/06/20 00:11:03;;;;;;;;;47.00;39.00;;;;;18.16;100.00;100425.59;6285907;22;45314;-85
2022/06/20 00:13:32;;;;;;;;;40.33;35.33;;;;;18.25;100.00;100429.00;6308482;22;47121;-86
2022/06/20 00:16:00;;;;;;;;;45.33;35.33;;;;;18.24;100.00;100427.22;6284824;22;45136;-86
2022/06/20 00:18:26;;;;;;;;;45.67;37.67;;;;;18.21;100.00;100422.81;6284471;22;45827;-86
2022/06/20 00:20:52;;;;;;;;;41.00;34.67;;;;;18.12;100.00;100406.88;6285474;22;45319;-85
2022/06/20 00:23:18;;;;;;;;;47.33;38.67;;;;;18.08;100.00;100391.72;6285614;22;46710;-85
2022/06/20 00:25:43;;;;;;;;;37.67;34.00;;;;;17.91;100.00;100370.56;6286333;22;45461;-85
2022/06/20 00:28:10;;;;;;;;;49.33;39.00;;;;;18.01;100.00;100376.63;6311022;22;45291;-86
2022/06/20 00:30:36;;;;;;;;;43.33;37.33;;;;;17.95;100.00;100353.41;6287899;22;45452;-86
2022/06/20 00:33:03;;;;;;;;;41.33;36.33;;;;;17.98;100.00;100373.09;6284104;22;46612;-85
2022/06/20 00:35:29;;;;;;;;;43.67;36.67;;;;;17.92;100.00;100377.72;6284606;22;45416;-85
2022/06/20 00:37:58;;;;;;;;;47.33;38.00;;;;;17.92;100.00;100388.47;6286297;22;45405;-85
2022/06/20 00:40:46;;;;;;;;;40.33;35.00;;;;;17.99;100.00;100398.19;6286883;22;45320;-85
2022/06/20 00:43:17;;;;;;;;;45.00;38.00;;;;;18.10;100.00;100411.41;6284812;22;48290;-85
2022/06/20 00:45:46;;;;;;;;;42.00;33.33;;;;;18.18;100.00;100413.00;6285772;22;45341;-85
2022/06/20 00:48:20;;;;;;;;;38.00;33.00;;;;;18.29;100.00;100411.88;6285612;22;45325;-85
2022/06/20 00:50:50;;;;;;;;;38.00;33.33;;;;;18.36;100.00;100405.41;6285360;22;45373;-86
2022/06/20 00:53:26;;;;;;;;;35.33;33.00;;;;;18.42;100.00;100410.69;6287056;22;45256;-86
2022/06/20 00:56:16;;;;;;;;;40.33;33.00;;;;;18.35;100.00;100420.69;6287337;22;45108;-86
2022/06/20 00:59:07;;;;;;;;;36.00;33.67;;;;;18.46;100.00;100455.47;6286983;22;45208;-86
2022/06/20 01:01:41;;;;;;;;;39.00;34.00;;;;;18.50;100.00;100443.69;6285448;22;45488;-85
2022/06/20 01:04:38;;;;;;;;;41.33;34.67;;;;;18.55;100.00;100444.44;6286646;22;46009;-85
2022/06/20 01:07:09;;;;;;;;;38.00;34.33;;;;;18.65;100.00;100450.50;6284650;22;45331;-85
2022/06/20 01:09:43;;;;;;;;;31.33;31.00;;;;;18.66;100.00;100446.88;6285569;22;45364;-85
2022/06/20 01:12:14;;;;;;;;;37.67;34.00;;;;;18.67;100.00;100437.03;6259419;22;45441;-85
2022/06/20 01:14:40;;;;;;;;;38.00;34.00;;;;;18.69;100.00;100435.16;6314145;22;45359;-85
2022/06/20 01:17:27;;;;;;;;;42.67;36.33;;;;;18.63;100.00;100421.84;6290721;22;45416;-86
2022/06/20 01:20:17;;;;;;;;;35.33;32.33;;;;;18.56;100.00;100429.16;6289702;22;44778;-85
2022/06/20 01:22:55;;;;;;;;;41.00;36.33;;;;;18.51;100.00;100409.56;6315814;22;45355;-86
2022/06/20 01:25:52;;;;;;;;;36.67;32.67;;;;;18.42;100.00;100394.53;6314595;22;47237;-85
2022/06/20 01:28:23;;;;;;;;;35.33;33.67;;;;;18.37;100.00;100383.84;6289600;22;45246;-86
2022/06/20 01:30:48;;;;;;;;;40.67;36.33;;;;;18.36;100.00;100374.00;6290007;22;45322;-86
2022/06/20 01:33:18;;;;;;;;;40.00;35.00;;;;;18.39;100.00;100354.19;6315495;22;45270;-86
2022/06/20 01:38:29;;;;;;;;;39.33;36.00;;;;;18.24;100.00;100293.53;6318742;22;45661;-86
2022/06/20 01:43:40;;;;;;;;;35.00;32.00;;;;;17.96;100.00;100258.34;6318719;22;45315;-85
2022/06/20 01:46:09;;;;;;;;;42.33;36.00;;;;;17.87;100.00;100263.94;6292525;22;46506;-85
2022/06/20 01:48:40;;;;;;;;;40.67;36.67;;;;;17.73;100.00;100238.22;6320461;22;45337;-85
2022/06/20 01:51:13;;;;;;;;;43.00;38.00;;;;;17.62;100.00;100180.25;6318295;22;45469;-85
2022/06/20 01:53:40;;;;;;;;;35.67;32.00;;;;;17.52;100.00;100137.44;6291962;22;45315;-85
2022/06/20 01:56:08;;;;;;;;;30.00;28.67;;;;;17.42;100.00;100102.75;6291563;22;45692;-85
2022/06/20 01:58:45;;;;;;;;;39.00;33.33;;;;;17.39;100.00;100049.91;6289334;22;45374;-85
2022/06/20 02:01:14;;;;;;;;;30.67;30.33;;;;;17.30;100.00;99989.22;6290334;22;45318;-85
2022/06/20 02:03:42;;;;;;;;;35.00;32.67;;;;;17.17;100.00;99988.66;6316749;22;44796;-85
2022/06/20 02:06:10;;;;;;;;;42.00;34.67;;;;;17.13;100.00;100000.41;6290218;22;47289;-85
2022/06/20 02:08:37;;;;;;;;;34.00;31.67;;;;;17.16;100.00;100035.25;6314553;22;45798;-85
2022/06/20 02:11:13;;;;;;;;;37.33;33.00;;;;;17.15;100.00;100064.88;6288244;22;45321;-85
2022/06/20 02:13:43;;;;;;;;;32.67;30.67;;;;;17.24;100.00;100125.56;6283664;22;45385;-85
2022/06/20 02:16:14;;;;;;;;;34.33;31.67;;;;;17.32;100.00;100167.47;6308769;22;47017;-85
2022/06/20 02:18:45;;;;;;;;;38.00;35.00;;;;;17.43;100.00;100163.63;6284113;22;45485;-85
2022/06/20 02:21:17;;;;;;;;;39.33;35.00;;;;;17.56;100.00;100187.50;6285417;22;45224;-85
2022/06/20 02:23:49;;;;;;;;;36.67;33.67;;;;;17.71;100.00;100212.28;6286729;22;44957;-86
2022/06/20 02:26:16;;;;;;;;;40.00;34.00;;;;;17.78;100.00;100238.13;6287599;22;45140;-86
2022/06/20 02:29:24;;;;;;;;;37.33;34.33;;;;;17.89;100.00;100241.44;6284361;22;45282;-86
2022/06/20 02:32:04;;;;;;;;;33.33;31.00;;;;;17.98;100.00;100251.13;6310434;22;44805;-86
2022/06/20 02:34:30;;;;;;;;;33.00;31.67;;;;;17.98;100.00;100269.97;6311380;22;45428;-85
2022/06/20 02:37:03;;;;;;;;;35.33;31.00;;;;;18.03;100.00;100283.28;6309595;22;47008;-86
2022/06/20 02:39:30;;;;;;;;;27.00;27.00;;;;;18.04;100.00;100293.13;6309949;22;45278;-85
2022/06/20 02:42:03;;;;;;;;;34.00;30.67;;;;;18.06;100.00;100307.44;6283989;22;45417;-86
2022/06/20 02:44:29;;;;;;;;;34.67;33.00;;;;;18.02;100.00;100313.78;6285069;22;44816;-85
2022/06/20 02:46:56;;;;;;;;;35.67;31.00;;;;;18.01;100.00;100309.34;6284061;22;46883;-85
2022/06/20 02:52:50;;;;;;;;;38.00;33.67;;;;;18.12;100.00;100321.63;6285483;22;45469;-86
2022/06/20 02:55:18;;;;;;;;;29.67;28.00;;;;;18.18;100.00;100308.03;6286191;22;45348;-86
2022/06/20 02:57:48;;;;;;;;;36.33;32.67;;;;;18.23;100.00;100298.97;6283211;22;46809;-86
2022/06/20 03:00:25;;;;;;;;;28.33;28.33;;;;;18.23;100.00;100312.41;6286307;22;45341;-86
2022/06/20 03:02:58;;;;;;;;;33.33;32.00;;;;;18.19;100.00;100328.63;6286264;22;45140;-86
2022/06/20 03:05:24;;;;;;;;;36.67;32.00;;;;;18.16;100.00;100334.09;6285645;22;44819;-85
2022/06/20 03:07:52;;;;;;;;;34.00;31.33;;;;;18.10;100.00;100336.94;6285655;22;45040;-86
2022/06/20 03:10:26;;;;;;;;;34.00;32.33;;;;;18.05;100.00;100344.22;6284241;22;45212;-86
2022/06/20 03:12:53;;;;;;;;;30.67;29.33;;;;;17.93;100.00;100342.69;6289639;22;45565;-86
2022/06/20 03:15:19;;;;;;;;;34.67;32.33;;;;;17.87;100.00;100355.41;6265069;22;44760;-86
2022/06/20 03:17:47;;;;;;;;;38.33;35.33;;;;;17.87;100.00;100350.03;6315808;22;47010;-86
2022/06/20 03:20:15;;;;;;;;;29.67;29.67;;;;;17.91;100.00;100363.34;6317454;22;45420;-86
2022/06/20 03:22:49;;;;;;;;;33.67;30.33;;;;;17.84;100.00;100363.56;6291029;22;45278;-86
2022/06/20 03:25:18;;;;;;;;;39.33;36.00;;;;;17.84;100.00;100390.47;6290850;22;45289;-86
2022/06/20 03:27:44;;;;;;;;;34.33;31.00;;;;;17.73;100.00;100388.84;6290942;22;46788;-86
2022/06/20 03:30:26;;;;;;;;;42.33;37.67;;;;;17.69;100.00;100389.78;6318415;22;45310;-86
2022/06/20 03:32:52;;;;;;;;;45.33;37.67;;;;;17.68;100.00;100395.22;6288466;22;45295;-86
2022/06/20 03:35:18;;;;;;;;;46.67;39.00;;;;;17.65;100.00;100396.16;6317113;22;45195;-86
2022/06/20 03:37:43;;;;;;;;;42.00;37.33;;;;;17.75;100.00;100405.84;6317062;22;45423;-86
2022/06/20 03:40:11;;;;;;;;;45.33;37.67;;;;;17.74;100.00;100401.38;6316246;22;45321;-86
2022/06/20 03:42:36;;;;;;;;;40.33;36.33;;;;;17.73;100.00;100409.47;6315447;22;45348;-87
2022/06/20 03:45:06;;;;;;;;;44.00;37.33;;;;;17.73;100.00;100407.69;6314793;22;44949;-85
2022/06/20 03:47:41;;;;;;;;;48.67;38.67;;;;;17.75;100.00;100416.59;6315326;22;45586;-85
2022/06/20 03:50:33;;;;;;;;;42.00;36.67;;;;;17.76;100.00;100407.59;6287892;22;45668;-85
2022/06/20 03:53:24;;;;;;;;;37.67;34.00;;;;;17.79;100.00;100417.41;6287172;22;45315;-87
2022/06/20 03:55:57;;;;;;;;;41.33;37.33;;;;;17.72;100.00;100421.16;6289305;22;45269;-87
2022/06/20 03:58:36;;;;;;;;;44.00;35.67;;;;;17.62;100.00;100412.38;6290005;22;46958;-85
2022/06/20 04:01:10;;;;;;;;;39.33;35.67;;;;;17.53;100.00;100423.31;6288074;22;45252;-85
2022/06/20 04:03:39;;;;;;;;;41.67;36.00;;;;;17.52;100.00;100432.31;6287544;22;45215;-85
2022/06/20 04:06:10;;;;;;;;;36.33;33.33;;;;;17.51;100.00;100435.88;6314022;22;45423;-85
2022/06/20 04:12:15;;;;;;;;;37.67;31.33;;;;;17.48;100.00;100438.66;6315610;22;45341;-85
2022/06/20 04:15:03;;;;;;;;;36.00;29.67;;;;;17.44;100.00;100434.25;6281817;22;45268;-85
2022/06/20 04:20:37;;;;;;;;;36.67;32.00;;;;;17.51;100.00;100458.31;6282255;22;45431;-85
2022/06/20 04:23:11;;;;;;;;;35.00;33.00;;;;;17.52;100.00;100459.19;6282984;22;45356;-85
2022/06/20 04:25:45;;;;;;;;;35.67;33.00;;;;;17.54;100.00;100468.09;6281648;22;45369;-85
2022/06/20 04:28:17;;;;;;;;;41.67;37.00;;;;;17.53;100.00;100466.31;6281668;22;45393;-85
2022/06/20 04:30:51;;;;;;;;;34.33;33.00;;;;;17.50;100.00;100466.41;6282527;22;47351;-86
2022/06/20 04:33:37;;;;;;;;;39.00;32.67;;;;;17.46;100.00;100467.38;6287009;22;44864;-86
2022/06/20 04:36:22;;;;;;;;;38.00;35.00;;;;;17.47;100.00;100471.81;6287325;22;45309;-85
2022/06/20 04:38:59;;;;;;;;;37.33;34.00;;;;;17.47;100.00;100475.41;6309601;22;44871;-86
2022/06/20 04:41:35;;;;;;;;;37.67;33.00;;;;;17.49;100.00;100472.69;6282698;22;46920;-86
2022/06/20 04:44:16;;;;;;;;;35.00;33.00;;;;;17.51;100.00;100478.91;6283230;22;44944;-85
2022/06/20 04:46:59;;;;;;;;;35.00;31.67;;;;;17.55;100.00;100486.00;6308410;22;45539;-85
2022/06/20 04:49:24;;;;;;;;;36.33;33.33;;;;;17.53;100.00;100477.06;6283871;22;45389;-85
2022/06/20 04:51:50;;;;;;;;;38.00;33.67;;;;;17.63;100.00;100494.81;6282612;22;46654;-85
2022/06/20 04:54:21;;;;;;;;;35.33;32.67;;;;;17.68;100.00;100502.81;6281780;22;45359;-85
2022/06/20 04:56:50;;;;;;;;;35.00;31.67;;;;;17.74;100.00;100503.56;6284478;22;45282;-85
2022/06/20 04:59:21;;;;;;;;;27.33;26.67;;;;;17.74;100.00;100502.69;6283237;22;44810;-85
2022/06/20 05:01:48;;;;;;;;;31.00;31.00;;;;;17.69;100.00;100518.00;6285342;22;45307;-86
2022/06/20 05:04:28;;;;;;;;;35.67;31.67;;;;;17.66;100.00;100515.41;6285315;22;45157;-85
2022/06/20 05:06:57;;;;;;;;;32.33;30.33;;;;;17.58;100.00;100518.22;6309883;22;45349;-85
2022/06/20 05:09:50;;;;;;;;;32.00;28.00;;;;;17.61;100.00;100531.59;6283683;22;45359;-85
2022/06/20 05:12:29;;;;;;;;;31.00;29.00;;;;;17.55;100.00;100519.19;6284204;22;46660;-85
2022/06/20 05:15:26;;;;;;;;;24.67;24.00;;;;;17.58;100.00;100518.22;6281701;22;45343;-85
2022/06/20 05:17:54;;;;;;;;;32.67;31.67;;;;;17.63;100.00;100516.31;6283986;22;45142;-85
2022/06/20 05:20:25;;;;;;;;;32.67;31.33;;;;;17.75;100.00;100521.50;6284256;22;45508;-85
2022/06/20 05:23:04;;;;;;;;;24.33;22.00;;;;;17.85;100.00;100522.22;6310129;22;47054;-85
2022/06/20 05:25:32;;;;;;;;;31.67;29.33;;;;;17.89;100.00;100513.16;6285318;22;45176;-85
2022/06/20 05:28:02;;;;;;;;;31.67;30.00;;;;;17.86;100.00;100523.13;6285639;22;45185;-84
2022/06/20 05:30:33;;;;;;;;;25.33;23.00;;;;;17.85;100.00;100527.59;6284894;22;45267;-85
2022/06/20 05:33:06;;;;;;;;;33.67;28.67;;;;;17.84;100.00;100530.34;6260600;22;47169;-85
2022/06/20 05:35:42;;;;;;;;;28.00;28.00;;;;;17.87;100.00;100541.03;6286525;22;45689;-85
2022/06/20 05:38:18;;;;;;;;;26.67;26.67;;;;;17.83;100.00;100531.22;6287681;22;45395;-85
2022/06/20 05:40:53;;;;;;;;;25.00;24.67;;;;;17.84;100.00;100543.78;6287623;22;44799;-86
2022/06/20 05:43:20;;;;;;;;;26.00;26.00;;;;;17.76;100.00;100538.50;6311377;22;47365;-86
2022/06/20 05:45:57;;;;;;;;;27.33;24.67;;;;;17.84;100.00;100554.56;6285161;22;45315;-86
2022/06/20 05:48:53;;;;;;;;;28.33;25.67;;;;;17.87;100.00;100559.84;6284992;22;45208;-85
2022/06/20 05:51:23;;;;;;;;;24.00;24.00;;;;;17.90;100.00;100567.88;6285803;22;45263;-85
2022/06/20 05:53:56;;;;;;;;;24.00;21.67;;;;;17.83;100.00;100555.41;6285240;22;47128;-84
2022/06/20 05:56:34;;;;;;;;;25.00;24.33;;;;;17.89;100.00;100566.09;6310196;22;45467;-85
2022/06/20 05:59:01;;;;;;;;;23.67;21.00;;;;;17.83;100.00;100560.81;6288014;22;44794;-85
2022/06/20 06:01:32;;;;;;;;;19.00;17.67;;;;;17.78;100.00;100563.59;6312752;22;45271;-84
2022/06/20 06:04:24;;;;;;;;;20.33;20.33;;;;;17.78;100.00;100582.41;6287295;22;45440;-85
2022/06/20 06:07:12;;;;;;;;;22.67;21.67;;;;;17.78;100.00;100585.97;6198005;22;45216;-84
2022/06/20 06:09:49;;;;;;;;;18.33;18.33;;;;;17.80;100.00;100592.22;6197623;22;45399;-84
2022/06/20 06:12:35;;;;;;;;;24.67;22.00;;;;;17.80;100.00;100594.91;6223875;22;45269;-85
2022/06/20 06:15:32;;;;;;;;;22.00;21.00;;;;;17.88;100.00;100612.78;6198236;22;48043;-85
2022/06/20 06:18:02;;;;;;;;;14.67;11.67;;;;;17.83;100.00;100611.91;6197391;22;45264;-86
2022/06/20 06:20:31;;;;;;;;;19.33;18.33;;;;;17.86;100.00;100622.66;6197558;22;45478;-85
2022/06/20 06:23:04;;;;;;;;;23.00;21.00;;;;;17.77;100.00;100608.44;6223889;22;45437;-86
2022/06/20 06:25:33;;;;;;;;;18.00;18.00;;;;;17.54;100.00;100571.16;6196925;22;45429;-86
2022/06/20 06:28:07;;;;;;;;;19.67;17.00;;;;;17.75;100.00;100609.34;6198596;22;45296;-86
2022/06/20 06:31:25;;;;;;;;;22.33;21.33;;;;;17.63;100.00;100585.38;6199691;22;44795;-86
2022/06/20 06:34:33;;;;;;;;;20.33;20.33;;;;;17.89;100.00;100628.84;6197622;22;45387;-86
2022/06/20 06:37:11;;;;;;;;;20.67;19.33;;;;;17.95;100.00;100630.56;6198422;22;46606;-86
2022/06/20 06:40:16;;;;;;;;;21.33;19.00;;;;;17.93;100.00;100637.78;6225878;22;45204;-86
2022/06/20 06:42:49;;;;;;;;;22.00;19.67;;;;;17.89;100.00;100642.31;6209200;22;45375;-87
2022/06/20 06:45:40;;;;;;;;;18.33;18.33;;;;;17.65;100.00;100608.63;6265515;22;45206;-86
2022/06/20 06:48:17;;;;;;;;;19.33;17.67;;;;;17.87;100.00;100648.63;6271558;22;45791;-86
2022/06/20 06:50:58;;;;;;;;;19.33;17.33;;;;;17.89;100.00;100642.31;6288918;22;45352;-85
2022/06/20 06:53:37;;;;;;;;;17.67;16.67;;;;;17.93;100.00;100643.16;6285920;22;45271;-85
2022/06/20 06:56:16;;;;;;;;;16.00;14.67;;;;;17.71;100.00;100626.47;6311157;22;45332;-87
2022/06/20 06:59:10;;;;;;;;;17.67;17.33;;;;;17.86;100.00;100652.25;6284358;22;46606;-87
2022/06/20 07:01:48;;;;;;;;;14.67;14.67;;;;;17.84;100.00;100659.47;6284995;22;45327;-87
2022/06/20 07:04:32;;;;;;;;;19.00;18.33;;;;;17.85;100.00;100667.50;6285492;22;45550;-87
2022/06/20 07:07:24;;;;;;;;;16.33;16.00;;;;;17.89;100.00;100671.03;6284245;22;44730;-85
2022/06/20 07:09:51;;;;;;;;;18.67;17.33;;;;;17.78;100.00;100666.69;6285719;22;47587;-84
2022/06/20 07:12:39;;;;;;;;;14.33;14.33;;;;;17.90;100.00;100684.47;6285706;22;45261;-84
2022/06/20 07:15:15;;;;;;;;;21.00;19.33;;;;;17.91;100.00;100685.34;6313876;22;44853;-84
2022/06/20 07:21:17;;;;;;;;;19.67;18.33;;;;;17.93;100.00;100683.50;6323919;22;45345;-85
2022/06/20 07:27:13;;;;;;;;;19.00;19.00;;;;;17.84;100.00;100694.44;6079066;23;45192;-85
2022/06/20 07:30:21;;;;;;;;;20.33;19.67;;;;;17.63;100.00;100680.38;6057561;23;45293;-85
2022/06/20 07:40:02;;;;;;;;;22.00;21.00;;;;;17.60;100.00;100721.66;6078956;23;45136;-86
2022/06/20 07:42:45;;;;;;;;;24.67;22.33;;;;;17.55;100.00;100717.25;6078786;23;45258;-84
2022/06/20 07:45:16;;;;;;;;;22.00;21.67;;;;;17.44;100.00;100712.03;6079627;23;45202;-82
2022/06/20 07:47:47;;;;;;;;;26.00;25.33;;;;;17.43;100.00;100725.50;6082836;23;45517;-84
2022/06/20 07:50:18;;;;;;;;;22.00;19.00;;;;;17.33;100.00;100705.91;6077874;23;44859;-84
2022/06/20 07:52:54;;;;;;;;;23.67;21.00;;;;;17.22;100.00;100700.72;6077385;23;44877;-85
2022/06/20 07:55:28;;;;;;;;;27.33;27.00;;;;;17.03;100.00;100680.38;6078664;23;46703;-83
2022/06/20 07:58:07;;;;;;;;;27.00;23.67;;;;;17.33;100.00;100733.72;6078334;23;44779;-83
2022/06/20 08:04:01;;;;;;;;;29.00;26.00;;;;;17.17;100.00;100721.41;6189194;22;44799;-84
2022/06/20 08:06:47;;;;;;;;;27.67;26.67;;;;;17.08;100.00;100717.00;6319639;22;45459;-84
2022/06/20 08:09:48;;;;;;;;;25.33;24.00;;;;;17.27;100.00;100743.63;6320535;22;45389;-84
2022/06/20 08:16:25;;;;;;;;;23.00;22.00;;;;;17.29;100.00;100741.81;6103486;23;45494;-84
2022/06/20 08:29:13;;;;;;;;;21.67;21.67;;;;;17.36;100.00;100685.28;6226538;22;45441;-83
2022/06/20 08:31:50;;;;;;;;;20.67;20.00;;;;;17.64;100.00;100719.81;6198965;22;45201;-86
2022/06/20 08:34:31;;;;;;;;;21.33;21.00;;;;;17.78;100.00;100725.88;6199364;22;44808;-85
2022/06/20 08:37:03;;;;;;;;;27.00;24.00;;;;;17.80;100.00;100725.84;6200051;22;45408;-84
2022/06/20 08:40:11;;;;;;;;;24.67;21.00;;;;;17.82;100.00;100732.09;6223921;22;45575;-85
2022/06/20 08:43:17;;;;;;;;;25.33;25.00;;;;;17.62;100.00;100688.50;6289959;22;45317;-84
2022/06/20 08:46:00;;;;;;;;;31.67;24.67;;;;;17.95;100.00;100732.81;6285281;22;45446;-83
2022/06/20 08:48:47;;;;;;;;;21.33;20.33;;;;;18.05;100.00;100736.25;6285795;22;45813;-84
2022/06/20 08:54:54;;;;;;;;;22.33;21.00;;;;;18.13;100.00;100743.25;6288752;22;45360;-83
2022/06/20 08:57:32;;;;;;;;;25.67;23.33;;;;;18.15;100.00;100756.69;6287702;22;45403;-83
2022/06/20 09:00:23;;;;;;;;;26.33;26.00;;;;;18.17;100.00;100752.19;6313641;22;45393;-83
2022/06/20 09:08:38;;;;;;;;;21.67;21.67;;;;;18.30;100.00;100772.59;6262228;22;45213;-84
2022/06/20 09:11:21;;;;;;;;;22.00;20.33;;;;;18.31;100.00;100778.88;6261577;22;45159;-82
2022/06/20 09:14:23;;;;;;;;;23.00;21.33;;;;;18.26;100.00;100780.72;6230573;22;45404;-84
2022/06/20 09:17:01;;;;;;;;;20.67;20.67;;;;;18.32;100.00;100786.00;6256447;22;45246;-84
2022/06/20 09:20:00;;;;;;;;;22.67;20.67;;;;;18.30;100.00;100771.69;6231615;22;45209;-85
2022/06/20 09:22:49;;;;;;;;;22.67;21.67;;;;;18.27;100.00;100756.47;6256746;22;45196;-85
2022/06/20 09:25:49;;;;;;;;;23.00;23.00;;;;;18.38;100.00;100767.09;6257614;22;44927;-84
2022/06/20 09:28:37;;;;;;;;;26.33;23.00;;;;;18.57;100.00;100773.00;6226177;22;45703;-86
2022/06/20 09:31:24;;;;;;;;;19.67;19.67;;;;;18.90;100.00;100784.97;6256755;22;45247;-84
2022/06/20 09:34:31;;;;;;;;;24.00;22.67;;;;;18.95;100.00;100793.88;6257383;22;44753;-84
2022/06/20 09:37:35;;;;;;;;;22.00;20.33;;;;;18.92;100.00;100810.09;6137922;23;45317;-84
2022/06/20 09:40:19;;;;;;;;;24.67;22.67;;;;;18.96;100.00;100814.50;6123214;23;45200;-83
2022/06/20 09:43:25;;;;;;;;;26.00;25.00;;;;;18.99;100.00;100806.38;6138138;23;45218;-84
2022/06/20 09:46:19;;;;;;;;;20.67;20.67;;;;;19.17;100.00;100799.72;6160674;23;45263;-82
2022/06/20 09:49:00;;;;;;;;;25.00;24.33;;;;;19.31;100.00;100791.34;6141215;23;45366;-84
2022/06/20 09:51:36;;;;;;;;;20.00;19.00;;;;;19.44;99.98;100799.19;6167599;23;46878;-84
2022/06/20 09:54:27;;;;;;;;;21.00;20.00;;;;;19.42;100.00;100774.03;6165716;23;45408;-84
2022/06/20 09:57:15;;;;;;;;;25.00;23.33;;;;;19.50;98.90;100801.72;6167690;23;44750;-81
2022/06/20 09:59:55;;;;;;;;;26.00;23.00;;;;;19.35;99.05;100797.53;6142544;23;45033;-84
2022/06/20 10:02:47;;;;;;;;;17.00;16.33;;;;;19.43;99.75;100798.28;6167443;23;47087;-84
2022/06/20 10:05:42;;;;;;;;;23.33;22.67;;;;;19.51;98.57;100800.78;6143887;23;45470;-82
2022/06/20 10:08:42;;;;;;;;;24.00;22.00;;;;;19.58;98.13;100800.63;6189287;22;45425;-83
2022/06/20 10:11:17;;;;;;;;;24.00;24.00;;;;;19.41;98.54;100769.56;6200641;22;44835;-84
2022/06/20 10:13:54;;;;;;;;;28.33;25.33;;;;;19.53;99.12;100801.66;6222609;22;46559;-83
2022/06/20 10:16:34;;;;;;;;;22.67;20.67;;;;;19.60;99.21;100808.69;6259324;22;45278;-83
2022/06/20 10:19:21;;;;;;;;;18.00;14.33;;;;;19.62;97.75;100801.47;6232118;22;45268;-83
2022/06/20 10:22:08;;;;;;;;;22.67;20.33;;;;;19.70;97.81;100812.09;6258613;22;45096;-83
2022/06/20 10:24:33;;;;;;;;;26.33;25.67;;;;;19.70;97.85;100804.00;6256060;22;46684;-84
2022/06/20 10:27:32;;;;;;;;;23.33;22.00;;;;;19.87;96.67;100806.31;6231033;22;45354;-83
2022/06/20 10:40:49;;;;;;;;;23.00;19.67;;;;;21.45;90.23;100794.09;6262227;22;44793;-83
2022/06/20 10:43:41;;;;;;;;;20.67;20.00;;;;;21.50;88.00;100802.06;6263475;22;45432;-85
2022/06/20 10:56:52;;;;;;;;;17.00;17.00;;;;;21.58;86.81;100822.53;6140022;23;45323;-84
2022/06/20 10:59:34;;;;;;;;;22.33;20.00;;;;;21.45;87.81;100815.72;6114114;23;45358;-83
2022/06/20 11:10:10;;;;;;;;;20.00;20.00;;;;;21.82;84.51;100817.31;6157006;23;45352;-84
2022/06/20 11:13:22;;;;;;;;;15.33;15.33;;;;;21.81;84.55;100799.25;6109675;23;45395;-83
2022/06/20 11:20:17;;;;;;;;;17.00;17.00;;;;;22.23;82.85;100825.03;5913142;24;44939;-85
2022/06/20 11:23:54;;;;;;;;;21.33;21.33;;;;;22.50;83.73;100818.72;6025868;23;45330;-83
2022/06/20 11:26:47;;;;;;;;;19.00;18.33;;;;;22.63;80.97;100826.44;5961533;23;45770;-84
2022/06/20 11:29:42;;;;;;;;;15.00;13.33;;;;;22.70;80.98;100831.59;6001221;23;45475;-83
2022/06/20 11:32:34;;;;;;;;;15.00;14.00;;;;;22.78;81.69;100834.00;5998177;23;44655;-83
2022/06/20 11:35:24;;;;;;;;;16.67;16.67;;;;;22.85;82.18;100824.72;6028640;23;45366;-83
2022/06/20 11:38:07;;;;;;;;;21.33;21.33;;;;;22.90;79.99;100795.59;6054554;23;45676;-84
2022/06/20 11:40:40;;;;;;;;;15.33;15.33;;;;;23.24;80.56;100816.09;6028470;23;45260;-85
2022/06/20 11:43:43;;;;;;;;;17.67;17.00;;;;;23.52;79.77;100815.06;6049455;23;45350;-84
2022/06/20 11:46:32;;;;;;;;;18.00;17.33;;;;;23.55;78.68;100776.91;6047407;23;45342;-83
2022/06/20 11:49:21;;;;;;;;;19.00;16.00;;;;;23.73;79.00;100783.47;6143182;23;45501;-84
2022/06/20 11:52:24;;;;;;;;;22.00;19.33;;;;;24.08;77.21;100822.81;6165944;23;45474;-84
2022/06/20 11:55:14;;;;;;;;;19.67;17.67;;;;;24.16;76.88;100817.09;6233609;22;45229;-84
2022/06/20 11:58:02;;;;;;;;;17.67;16.67;;;;;24.32;76.99;100814.63;6291710;22;45656;-83
2022/06/20 12:00:38;;;;;;;;;17.00;16.00;;;;;24.42;76.72;100802.41;6291053;22;45324;-83
2022/06/20 12:06:06;;;;;;;;;13.67;13.67;;;;;24.79;74.94;100789.94;6230789;22;44842;-85
2022/06/20 12:08:54;;;;;;;;;17.33;16.67;;;;;25.06;73.65;100808.72;6197292;22;45316;-84
2022/06/20 12:11:49;;;;;;;;;19.00;18.33;;;;;25.15;72.15;100800.13;6201689;22;45717;-85
2022/06/20 12:14:47;;;;;;;;;13.00;13.00;;;;;24.89;71.58;100790.44;6201097;22;45397;-86
2022/06/20 12:17:43;;;;;;;;;16.00;16.00;;;;;24.92;72.24;100799.31;6199892;22;45518;-84
2022/06/20 12:23:21;;;;;;;;;17.00;17.00;;;;;24.43;72.85;100781.53;6230249;22;45493;-85
2022/06/20 12:26:18;;;;;;;;;18.67;18.67;;;;;24.63;72.03;100799.75;6229539;22;45411;-85
2022/06/20 12:28:55;;;;;;;;;15.33;15.33;;;;;24.65;70.31;100787.84;6202605;22;45528;-84
2022/06/20 12:31:22;;;;;;;;;16.33;15.00;;;;;24.60;71.95;100761.78;6200736;22;45773;-86
2022/06/20 12:34:03;;;;;;;;;15.33;14.00;;;;;24.77;70.70;100785.53;6251283;22;45531;-85
2022/06/20 12:36:50;;;;;;;;;15.33;15.33;;;;;24.78;72.20;100785.44;6200973;22;48287;-85
2022/06/20 12:39:54;;;;;;;;;16.33;12.00;;;;;24.82;69.04;100789.78;6254128;22;45948;-84
2022/06/20 12:42:48;;;;;;;;;17.00;17.00;;;;;24.40;70.79;100777.13;6200216;22;45366;-85
2022/06/20 12:46:12;;;;;;;;;18.00;16.67;;;;;24.32;73.03;100784.72;6231400;22;45402;-86
2022/06/20 12:49:05;;;;;;;;;15.00;15.00;;;;;24.28;73.60;100777.59;6202919;22;47007;-83
2022/06/20 12:51:43;;;;;;;;;15.67;15.67;;;;;24.30;72.90;100773.91;6254011;22;45603;-85
2022/06/20 12:54:25;;;;;;;;;14.67;14.67;;;;;24.39;74.80;100759.03;6202516;22;45362;-84
2022/06/20 12:57:06;;;;;;;;;16.00;14.33;;;;;24.70;73.25;100774.03;6200853;22;45570;-83
2022/06/20 12:59:50;;;;;;;;;17.33;16.00;;;;;24.58;71.80;100775.44;6228268;22;45578;-86
2022/06/20 13:02:25;;;;;;;;;14.00;13.67;;;;;24.45;72.69;100775.06;6203296;22;45339;-84
2022/06/20 13:05:41;;;;;;;;;22.67;17.67;;;;;24.60;72.77;100778.97;6248253;22;45601;-86
2022/06/20 13:08:37;;;;;;;;;13.33;12.33;;;;;24.71;72.58;100786.69;6232976;22;45361;-85
2022/06/20 13:11:08;;;;;;;;;14.00;14.00;;;;;24.94;72.12;100789.28;6258777;22;45392;-86
2022/06/20 13:14:01;;;;;;;;;14.00;14.00;;;;;25.01;71.41;100789.00;6232399;22;45495;-84
2022/06/20 13:16:42;;;;;;;;;14.33;12.33;;;;;24.89;70.49;100780.44;6233138;22;45585;-85
2022/06/20 13:23:05;;;;;;;;;16.00;15.33;;;;;24.26;73.46;100788.56;6260430;22;45449;-85
2022/06/20 13:25:43;;;;;;;;;14.67;13.67;;;;;24.16;73.40;100787.19;6261607;22;45263;-84
2022/06/20 13:28:27;;;;;;;;;13.00;11.33;;;;;24.31;73.75;100774.78;6261311;22;45507;-84
2022/06/20 13:31:08;;;;;;;;;15.67;15.00;;;;;24.44;72.29;100786.91;6235523;22;44959;-83
2022/06/20 13:37:21;;;;;;;;;17.33;15.33;;;;;24.48;71.39;100790.34;6259950;22;45401;-85
2022/06/20 13:40:11;;;;;;;;;15.00;15.00;;;;;24.44;71.92;100795.06;6231847;22;45335;-85
2022/06/20 13:42:46;;;;;;;;;16.00;14.67;;;;;24.44;72.48;100777.84;6232663;22;45452;-84